sensor_id;sensor_type;location;lat;lon;timestamp;P1;durP1;ratioP1;P2;durP2;ratioP2
76865;SDS011;66647;52.124;5.416;2023-04-01T00:00:23;10.52;;;2.80;;
76865;SDS011;66647;52.124;5.416;2023-04-01T00:02:57;13.35;;;3.25;;
76865;SDS011;66647;52.124;5.416;2023-04-01T00:05:24;11.27;;;2.92;;
76865;SDS011;66647;52.124;5.416;2023-04-01T00:08:09;11.02;;;2.80;;
76865;SDS011;66647;52.124;5.416;2023-04-01T00:10:38;10.98;;;3.85;;
76865;SDS011;66647;52.124;5.416;2023-04-01T00:13:04;12.57;;;2.75;;
76865;SDS011;66647;52.124;5.416;2023-04-01T00:15:31;9.57;;;3.15;;
76865;SDS011;66647;52.124;5.416;2023-04-01T00:17:58;11.82;;;2.90;;
76865;SDS011;66647;52.124;5.416;2023-04-01T00:20:25;10.35;;;2.63;;
76865;SDS011;66647;52.124;5.416;2023-04-01T00:22:52;11.07;;;2.85;;
76865;SDS011;66647;52.124;5.416;2023-04-01T00:27:48;12.27;;;3.10;;
76865;SDS011;66647;52.124;5.416;2023-04-01T00:30:29;15.93;;;2.45;;
76865;SDS011;66647;52.124;5.416;2023-04-01T00:32:56;14.93;;;3.33;;
76865;SDS011;66647;52.124;5.416;2023-04-01T00:35:23;14.13;;;3.22;;
76865;SDS011;66647;52.124;5.416;2023-04-01T00:37:51;14.85;;;2.97;;
76865;SDS011;66647;52.124;5.416;2023-04-01T00:40:39;20.65;;;3.30;;
76865;SDS011;66647;52.124;5.416;2023-04-01T00:43:18;9.85;;;3.25;;
76865;SDS011;66647;52.124;5.416;2023-04-01T00:45:47;12.93;;;3.75;;
76865;SDS011;66647;52.124;5.416;2023-04-01T00:48:44;15.57;;;3.90;;
76865;SDS011;66647;52.124;5.416;2023-04-01T00:51:17;12.23;;;3.70;;
76865;SDS011;66647;52.124;5.416;2023-04-01T00:53:50;20.20;;;4.28;;
76865;SDS011;66647;52.124;5.416;2023-04-01T00:56:37;12.20;;;4.03;;
76865;SDS011;66647;52.124;5.416;2023-04-01T00:59:09;19.35;;;4.13;;
76865;SDS011;66647;52.124;5.416;2023-04-01T01:01:48;14.55;;;3.78;;
76865;SDS011;66647;52.124;5.416;2023-04-01T01:04:23;17.67;;;4.00;;
76865;SDS011;66647;52.124;5.416;2023-04-01T01:09:50;16.60;;;4.45;;
76865;SDS011;66647;52.124;5.416;2023-04-01T01:12:20;12.80;;;3.15;;
76865;SDS011;66647;52.124;5.416;2023-04-01T01:15:06;14.70;;;3.58;;
76865;SDS011;66647;52.124;5.416;2023-04-01T01:17:41;14.70;;;3.00;;
76865;SDS011;66647;52.124;5.416;2023-04-01T01:25:59;19.13;;;3.53;;
76865;SDS011;66647;52.124;5.416;2023-04-01T01:28:54;12.38;;;3.63;;
76865;SDS011;66647;52.124;5.416;2023-04-01T01:31:50;13.20;;;3.88;;
76865;SDS011;66647;52.124;5.416;2023-04-01T01:37:22;17.80;;;3.97;;
76865;SDS011;66647;52.124;5.416;2023-04-01T01:39:56;10.93;;;3.00;;
76865;SDS011;66647;52.124;5.416;2023-04-01T01:42:30;8.20;;;2.22;;
76865;SDS011;66647;52.124;5.416;2023-04-01T01:44:59;11.27;;;2.45;;
76865;SDS011;66647;52.124;5.416;2023-04-01T01:47:27;6.22;;;1.55;;
76865;SDS011;66647;52.124;5.416;2023-04-01T01:49:55;4.63;;;1.38;;
76865;SDS011;66647;52.124;5.416;2023-04-01T01:52:31;7.53;;;1.17;;
76865;SDS011;66647;52.124;5.416;2023-04-01T01:54:58;6.53;;;1.45;;
76865;SDS011;66647;52.124;5.416;2023-04-01T01:57:33;5.55;;;1.30;;
76865;SDS011;66647;52.124;5.416;2023-04-01T02:00:21;6.97;;;0.90;;
76865;SDS011;66647;52.124;5.416;2023-04-01T02:02:48;6.45;;;0.90;;
76865;SDS011;66647;52.124;5.416;2023-04-01T02:05:17;5.25;;;0.60;;
76865;SDS011;66647;52.124;5.416;2023-04-01T02:07:48;4.05;;;0.77;;
76865;SDS011;66647;52.124;5.416;2023-04-01T02:10:24;5.13;;;1.02;;
76865;SDS011;66647;52.124;5.416;2023-04-01T02:12:53;3.85;;;0.80;;
76865;SDS011;66647;52.124;5.416;2023-04-01T02:15:25;5.68;;;0.98;;
76865;SDS011;66647;52.124;5.416;2023-04-01T02:17:57;3.60;;;0.63;;
76865;SDS011;66647;52.124;5.416;2023-04-01T02:20:24;5.28;;;0.50;;
76865;SDS011;66647;52.124;5.416;2023-04-01T02:22:56;3.38;;;0.55;;
76865;SDS011;66647;52.124;5.416;2023-04-01T02:25:33;6.20;;;0.60;;
76865;SDS011;66647;52.124;5.416;2023-04-01T02:28:02;4.93;;;0.50;;
76865;SDS011;66647;52.124;5.416;2023-04-01T02:30:33;3.53;;;0.50;;
76865;SDS011;66647;52.124;5.416;2023-04-01T02:33:02;4.07;;;0.43;;
76865;SDS011;66647;52.124;5.416;2023-04-01T02:35:32;4.43;;;0.90;;
76865;SDS011;66647;52.124;5.416;2023-04-01T02:38:01;5.00;;;0.40;;
76865;SDS011;66647;52.124;5.416;2023-04-01T02:40:28;4.15;;;0.55;;
76865;SDS011;66647;52.124;5.416;2023-04-01T02:42:57;5.72;;;1.10;;
76865;SDS011;66647;52.124;5.416;2023-04-01T02:45:23;3.38;;;0.80;;
76865;SDS011;66647;52.124;5.416;2023-04-01T02:47:50;4.32;;;0.60;;
76865;SDS011;66647;52.124;5.416;2023-04-01T02:50:17;5.65;;;0.70;;
76865;SDS011;66647;52.124;5.416;2023-04-01T02:52:43;6.40;;;1.05;;
76865;SDS011;66647;52.124;5.416;2023-04-01T02:55:11;4.07;;;0.90;;
76865;SDS011;66647;52.124;5.416;2023-04-01T02:57:38;5.32;;;0.88;;
76865;SDS011;66647;52.124;5.416;2023-04-01T03:00:04;4.10;;;0.70;;
76865;SDS011;66647;52.124;5.416;2023-04-01T03:05:08;3.25;;;0.52;;
76865;SDS011;66647;52.124;5.416;2023-04-01T03:07:34;3.38;;;0.52;;
76865;SDS011;66647;52.124;5.416;2023-04-01T03:10:01;5.53;;;0.80;;
76865;SDS011;66647;52.124;5.416;2023-04-01T03:12:28;2.90;;;0.70;;
76865;SDS011;66647;52.124;5.416;2023-04-01T03:14:55;5.72;;;0.52;;
76865;SDS011;66647;52.124;5.416;2023-04-01T03:17:35;4.22;;;0.60;;
76865;SDS011;66647;52.124;5.416;2023-04-01T03:20:02;4.20;;;0.50;;
76865;SDS011;66647;52.124;5.416;2023-04-01T03:22:31;3.35;;;0.63;;
76865;SDS011;66647;52.124;5.416;2023-04-01T03:24:57;2.78;;;0.40;;
76865;SDS011;66647;52.124;5.416;2023-04-01T03:27:24;4.53;;;0.45;;
76865;SDS011;66647;52.124;5.416;2023-04-01T03:29:54;4.45;;;0.30;;
76865;SDS011;66647;52.124;5.416;2023-04-01T03:32:20;2.40;;;0.30;;
76865;SDS011;66647;52.124;5.416;2023-04-01T03:34:47;2.50;;;0.50;;
76865;SDS011;66647;52.124;5.416;2023-04-01T03:37:13;4.85;;;0.68;;
76865;SDS011;66647;52.124;5.416;2023-04-01T03:39:40;3.40;;;1.15;;
76865;SDS011;66647;52.124;5.416;2023-04-01T03:42:09;3.58;;;0.82;;
76865;SDS011;66647;52.124;5.416;2023-04-01T03:44:36;4.45;;;0.93;;
76865;SDS011;66647;52.124;5.416;2023-04-01T03:47:03;4.55;;;1.05;;
76865;SDS011;66647;52.124;5.416;2023-04-01T03:49:29;5.78;;;0.80;;
76865;SDS011;66647;52.124;5.416;2023-04-01T03:51:58;4.28;;;0.63;;
76865;SDS011;66647;52.124;5.416;2023-04-01T03:54:28;5.40;;;1.33;;
76865;SDS011;66647;52.124;5.416;2023-04-01T03:57:00;4.53;;;1.25;;
76865;SDS011;66647;52.124;5.416;2023-04-01T03:59:28;5.65;;;1.52;;
76865;SDS011;66647;52.124;5.416;2023-04-01T04:01:55;5.07;;;1.10;;
76865;SDS011;66647;52.124;5.416;2023-04-01T04:04:22;5.82;;;1.40;;
76865;SDS011;66647;52.124;5.416;2023-04-01T04:06:48;4.80;;;1.33;;
76865;SDS011;66647;52.124;5.416;2023-04-01T04:09:15;5.93;;;1.17;;
76865;SDS011;66647;52.124;5.416;2023-04-01T04:11:41;8.63;;;1.42;;
76865;SDS011;66647;52.124;5.416;2023-04-01T04:14:08;7.00;;;1.92;;
76865;SDS011;66647;52.124;5.416;2023-04-01T04:16:35;6.78;;;1.95;;
76865;SDS011;66647;52.124;5.416;2023-04-01T04:19:05;6.60;;;2.00;;
76865;SDS011;66647;52.124;5.416;2023-04-01T04:21:32;6.68;;;1.63;;
76865;SDS011;66647;52.124;5.416;2023-04-01T04:23:59;4.35;;;1.10;;
76865;SDS011;66647;52.124;5.416;2023-04-01T04:26:32;4.07;;;0.90;;
76865;SDS011;66647;52.124;5.416;2023-04-01T04:28:59;5.47;;;0.95;;
76865;SDS011;66647;52.124;5.416;2023-04-01T04:31:28;4.97;;;1.45;;
76865;SDS011;66647;52.124;5.416;2023-04-01T04:33:58;4.78;;;1.10;;
76865;SDS011;66647;52.124;5.416;2023-04-01T04:36:28;4.13;;;1.10;;
76865;SDS011;66647;52.124;5.416;2023-04-01T04:39:00;4.40;;;1.10;;
76865;SDS011;66647;52.124;5.416;2023-04-01T04:41:31;4.80;;;1.02;;
76865;SDS011;66647;52.124;5.416;2023-04-01T04:43:57;4.10;;;1.08;;
76865;SDS011;66647;52.124;5.416;2023-04-01T04:46:25;4.93;;;1.00;;
76865;SDS011;66647;52.124;5.416;2023-04-01T04:49:02;5.75;;;1.55;;
76865;SDS011;66647;52.124;5.416;2023-04-01T04:51:29;6.32;;;1.48;;
76865;SDS011;66647;52.124;5.416;2023-04-01T04:53:55;7.05;;;1.30;;
76865;SDS011;66647;52.124;5.416;2023-04-01T04:56:32;6.10;;;1.63;;
76865;SDS011;66647;52.124;5.416;2023-04-01T04:59:03;5.63;;;1.20;;
76865;SDS011;66647;52.124;5.416;2023-04-01T05:01:40;4.82;;;1.05;;
76865;SDS011;66647;52.124;5.416;2023-04-01T05:04:08;4.97;;;0.90;;
76865;SDS011;66647;52.124;5.416;2023-04-01T05:06:35;5.82;;;1.13;;
76865;SDS011;66647;52.124;5.416;2023-04-01T05:09:10;2.58;;;0.45;;
76865;SDS011;66647;52.124;5.416;2023-04-01T05:11:38;6.18;;;1.27;;
76865;SDS011;66647;52.124;5.416;2023-04-01T05:14:06;4.65;;;0.95;;
76865;SDS011;66647;52.124;5.416;2023-04-01T05:16:44;3.40;;;0.68;;
76865;SDS011;66647;52.124;5.416;2023-04-01T05:19:11;5.63;;;1.10;;
76865;SDS011;66647;52.124;5.416;2023-04-01T05:21:38;4.68;;;1.08;;
76865;SDS011;66647;52.124;5.416;2023-04-01T05:24:07;6.43;;;1.23;;
76865;SDS011;66647;52.124;5.416;2023-04-01T05:26:35;4.60;;;1.13;;
76865;SDS011;66647;52.124;5.416;2023-04-01T05:29:04;5.68;;;1.38;;
76865;SDS011;66647;52.124;5.416;2023-04-01T05:31:31;6.90;;;1.85;;
76865;SDS011;66647;52.124;5.416;2023-04-01T05:33:58;5.80;;;1.10;;
76865;SDS011;66647;52.124;5.416;2023-04-01T05:36:24;5.85;;;1.02;;
76865;SDS011;66647;52.124;5.416;2023-04-01T05:38:56;4.95;;;0.82;;
76865;SDS011;66647;52.124;5.416;2023-04-01T05:41:25;4.05;;;1.33;;
76865;SDS011;66647;52.124;5.416;2023-04-01T05:43:52;5.10;;;1.05;;
76865;SDS011;66647;52.124;5.416;2023-04-01T05:46:43;3.78;;;0.70;;
76865;SDS011;66647;52.124;5.416;2023-04-01T05:49:21;4.07;;;1.05;;
76865;SDS011;66647;52.124;5.416;2023-04-01T05:52:03;3.97;;;0.80;;
76865;SDS011;66647;52.124;5.416;2023-04-01T05:54:32;5.10;;;0.88;;
76865;SDS011;66647;52.124;5.416;2023-04-01T05:56:59;4.05;;;0.77;;
76865;SDS011;66647;52.124;5.416;2023-04-01T05:59:26;4.78;;;0.98;;
76865;SDS011;66647;52.124;5.416;2023-04-01T06:01:52;2.50;;;0.30;;
76865;SDS011;66647;52.124;5.416;2023-04-01T06:04:31;2.47;;;0.30;;
76865;SDS011;66647;52.124;5.416;2023-04-01T06:07:01;2.60;;;0.22;;
76865;SDS011;66647;52.124;5.416;2023-04-01T06:09:36;3.67;;;0.50;;
76865;SDS011;66647;52.124;5.416;2023-04-01T06:15:33;3.30;;;0.30;;
76865;SDS011;66647;52.124;5.416;2023-04-01T06:18:11;2.65;;;0.40;;
76865;SDS011;66647;52.124;5.416;2023-04-01T06:21:04;3.30;;;0.35;;
76865;SDS011;66647;52.124;5.416;2023-04-01T06:24:07;3.00;;;0.50;;
76865;SDS011;66647;52.124;5.416;2023-04-01T06:27:07;3.00;;;0.70;;
76865;SDS011;66647;52.124;5.416;2023-04-01T06:29:49;3.63;;;0.70;;
76865;SDS011;66647;52.124;5.416;2023-04-01T06:32:38;4.28;;;0.70;;
76865;SDS011;66647;52.124;5.416;2023-04-01T06:38:41;3.67;;;0.52;;
76865;SDS011;66647;52.124;5.416;2023-04-01T06:44:13;2.45;;;0.50;;
76865;SDS011;66647;52.124;5.416;2023-04-01T06:56:38;2.90;;;0.32;;
76865;SDS011;66647;52.124;5.416;2023-04-01T06:59:22;2.80;;;0.40;;
76865;SDS011;66647;52.124;5.416;2023-04-01T07:01:54;2.75;;;0.40;;
76865;SDS011;66647;52.124;5.416;2023-04-01T07:04:26;2.53;;;0.20;;
76865;SDS011;66647;52.124;5.416;2023-04-01T07:09:56;5.45;;;0.93;;
76865;SDS011;66647;52.124;5.416;2023-04-01T07:15:32;2.80;;;0.55;;
76865;SDS011;66647;52.124;5.416;2023-04-01T07:18:09;2.58;;;0.50;;
76865;SDS011;66647;52.124;5.416;2023-04-01T07:20:44;3.30;;;0.52;;
76865;SDS011;66647;52.124;5.416;2023-04-01T07:23:32;3.47;;;0.47;;
76865;SDS011;66647;52.124;5.416;2023-04-01T07:26:40;4.00;;;0.50;;
76865;SDS011;66647;52.124;5.416;2023-04-01T07:29:11;3.58;;;0.50;;
76865;SDS011;66647;52.124;5.416;2023-04-01T07:32:07;4.15;;;0.60;;
76865;SDS011;66647;52.124;5.416;2023-04-01T07:34:50;4.90;;;1.20;;
76865;SDS011;66647;52.124;5.416;2023-04-01T07:38:24;3.92;;;0.82;;
76865;SDS011;66647;52.124;5.416;2023-04-01T07:40:48;3.25;;;0.63;;
76865;SDS011;66647;52.124;5.416;2023-04-01T08:06:27;3.75;;;0.60;;
76865;SDS011;66647;52.124;5.416;2023-04-01T08:15:54;5.07;;;1.00;;
76865;SDS011;66647;52.124;5.416;2023-04-01T08:21:19;4.30;;;0.50;;
76865;SDS011;66647;52.124;5.416;2023-04-01T08:23:51;5.53;;;1.15;;
76865;SDS011;66647;52.124;5.416;2023-04-01T08:31:43;6.72;;;1.45;;
76865;SDS011;66647;52.124;5.416;2023-04-01T08:34:15;5.32;;;0.93;;
76865;SDS011;66647;52.124;5.416;2023-04-01T08:36:59;5.72;;;1.23;;
76865;SDS011;66647;52.124;5.416;2023-04-01T08:39:32;6.05;;;1.30;;
76865;SDS011;66647;52.124;5.416;2023-04-01T08:56:26;4.63;;;1.10;;
76865;SDS011;66647;52.124;5.416;2023-04-01T09:02:39;6.65;;;1.10;;
76865;SDS011;66647;52.124;5.416;2023-04-01T09:08:07;4.40;;;0.90;;
76865;SDS011;66647;52.124;5.416;2023-04-01T09:14:23;6.55;;;1.48;;
76865;SDS011;66647;52.124;5.416;2023-04-01T09:26:03;4.20;;;1.00;;
76865;SDS011;66647;52.124;5.416;2023-04-01T09:31:17;4.25;;;1.08;;
76865;SDS011;66647;52.124;5.416;2023-04-01T09:43:25;4.18;;;1.00;;
76865;SDS011;66647;52.124;5.416;2023-04-01T09:46:19;5.47;;;1.92;;
76865;SDS011;66647;52.124;5.416;2023-04-01T09:57:30;5.68;;;1.55;;
76865;SDS011;66647;52.124;5.416;2023-04-01T10:07:30;6.68;;;2.20;;
76865;SDS011;66647;52.124;5.416;2023-04-01T10:16:33;7.15;;;2.40;;
76865;SDS011;66647;52.124;5.416;2023-04-01T10:22:28;7.55;;;2.63;;
76865;SDS011;66647;52.124;5.416;2023-04-01T10:34:51;5.60;;;2.08;;
76865;SDS011;66647;52.124;5.416;2023-04-01T10:37:51;6.30;;;2.20;;
76865;SDS011;66647;52.124;5.416;2023-04-01T10:50:04;6.80;;;1.60;;
76865;SDS011;66647;52.124;5.416;2023-04-01T11:23:31;1.73;;;0.20;;
76865;SDS011;66647;52.124;5.416;2023-04-01T11:26:00;1.52;;;0.22;;
76865;SDS011;66647;52.124;5.416;2023-04-01T11:32:12;2.60;;;0.63;;
76865;SDS011;66647;52.124;5.416;2023-04-01T11:37:31;2.30;;;0.30;;
76865;SDS011;66647;52.124;5.416;2023-04-01T11:40:40;1.00;;;0.20;;
76865;SDS011;66647;52.124;5.416;2023-04-01T11:43:46;2.75;;;0.10;;
76865;SDS011;66647;52.124;5.416;2023-04-01T11:52:53;2.00;;;0.10;;
76865;SDS011;66647;52.124;5.416;2023-04-01T11:55:51;1.55;;;0.10;;
76865;SDS011;66647;52.124;5.416;2023-04-01T11:58:32;1.13;;;0.10;;
76865;SDS011;66647;52.124;5.416;2023-04-01T12:04:58;1.58;;;0.20;;
76865;SDS011;66647;52.124;5.416;2023-04-01T12:13:02;2.80;;;0.30;;
76865;SDS011;66647;52.124;5.416;2023-04-01T12:15:45;2.13;;;0.32;;
76865;SDS011;66647;52.124;5.416;2023-04-01T12:37:41;5.97;;;1.73;;
76865;SDS011;66647;52.124;5.416;2023-04-01T12:51:46;7.90;;;2.88;;
76865;SDS011;66647;52.124;5.416;2023-04-01T13:11:57;7.93;;;3.20;;
76865;SDS011;66647;52.124;5.416;2023-04-01T13:14:51;8.68;;;2.78;;
76865;SDS011;66647;52.124;5.416;2023-04-01T13:20:19;7.43;;;1.92;;
76865;SDS011;66647;52.124;5.416;2023-04-01T13:26:17;6.47;;;2.15;;
76865;SDS011;66647;52.124;5.416;2023-04-01T13:28:58;3.78;;;1.00;;
76865;SDS011;66647;52.124;5.416;2023-04-01T13:31:47;3.92;;;0.93;;
76865;SDS011;66647;52.124;5.416;2023-04-01T13:34:48;4.40;;;1.30;;
76865;SDS011;66647;52.124;5.416;2023-04-01T13:45:57;3.53;;;1.02;;
76865;SDS011;66647;52.124;5.416;2023-04-01T13:54:08;3.38;;;0.50;;
76865;SDS011;66647;52.124;5.416;2023-04-01T13:59:32;2.55;;;0.43;;
76865;SDS011;66647;52.124;5.416;2023-04-01T14:02:34;2.92;;;0.60;;
76865;SDS011;66647;52.124;5.416;2023-04-01T14:07:50;2.75;;;0.50;;
76865;SDS011;66647;52.124;5.416;2023-04-01T14:10:31;2.83;;;0.50;;
76865;SDS011;66647;52.124;5.416;2023-04-01T14:13:39;4.03;;;0.77;;
76865;SDS011;66647;52.124;5.416;2023-04-01T14:24:56;3.55;;;1.00;;
76865;SDS011;66647;52.124;5.416;2023-04-01T14:30:08;4.40;;;1.05;;
76865;SDS011;66647;52.124;5.416;2023-04-01T14:32:51;5.35;;;1.50;;
76865;SDS011;66647;52.124;5.416;2023-04-01T14:35:30;3.72;;;0.80;;
76865;SDS011;66647;52.124;5.416;2023-04-01T14:38:05;3.70;;;0.63;;
76865;SDS011;66647;52.124;5.416;2023-04-01T14:49:24;3.55;;;0.95;;
76865;SDS011;66647;52.124;5.416;2023-04-01T14:54:57;4.20;;;1.00;;
76865;SDS011;66647;52.124;5.416;2023-04-01T14:57:27;5.35;;;1.17;;
76865;SDS011;66647;52.124;5.416;2023-04-01T15:00:15;3.92;;;1.00;;
76865;SDS011;66647;52.124;5.416;2023-04-01T15:02:59;3.47;;;1.20;;
76865;SDS011;66647;52.124;5.416;2023-04-01T15:23:27;3.10;;;0.50;;
76865;SDS011;66647;52.124;5.416;2023-04-01T15:26:21;4.57;;;0.88;;
76865;SDS011;66647;52.124;5.416;2023-04-01T15:39:54;4.97;;;1.00;;
76865;SDS011;66647;52.124;5.416;2023-04-01T15:42:34;2.55;;;0.68;;
76865;SDS011;66647;52.124;5.416;2023-04-01T15:45:24;2.90;;;0.40;;
76865;SDS011;66647;52.124;5.416;2023-04-01T15:48:02;2.30;;;0.47;;
76865;SDS011;66647;52.124;5.416;2023-04-01T15:56:15;2.20;;;0.50;;
76865;SDS011;66647;52.124;5.416;2023-04-01T16:01:59;1.83;;;0.22;;
76865;SDS011;66647;52.124;5.416;2023-04-01T16:05:08;2.90;;;0.50;;
76865;SDS011;66647;52.124;5.416;2023-04-01T16:10:34;3.05;;;0.50;;
76865;SDS011;66647;52.124;5.416;2023-04-01T16:13:19;3.08;;;0.50;;
76865;SDS011;66647;52.124;5.416;2023-04-01T16:18:46;3.25;;;0.75;;
76865;SDS011;66647;52.124;5.416;2023-04-01T16:21:43;4.63;;;0.43;;
76865;SDS011;66647;52.124;5.416;2023-04-01T16:41:07;5.97;;;0.95;;
76865;SDS011;66647;52.124;5.416;2023-04-01T16:46:21;3.25;;;1.20;;
76865;SDS011;66647;52.124;5.416;2023-04-01T16:49:13;2.72;;;0.70;;
76865;SDS011;66647;52.124;5.416;2023-04-01T16:56:56;4.35;;;1.00;;
76865;SDS011;66647;52.124;5.416;2023-04-01T16:59:57;2.80;;;0.80;;
76865;SDS011;66647;52.124;5.416;2023-04-01T17:02:37;3.55;;;0.93;;
76865;SDS011;66647;52.124;5.416;2023-04-01T17:05:10;2.67;;;0.52;;
76865;SDS011;66647;52.124;5.416;2023-04-01T17:13:28;2.65;;;0.80;;
76865;SDS011;66647;52.124;5.416;2023-04-01T17:24:26;3.20;;;0.80;;
76865;SDS011;66647;52.124;5.416;2023-04-01T17:28:04;3.10;;;0.60;;
76865;SDS011;66647;52.124;5.416;2023-04-01T17:35:13;4.38;;;0.63;;
76865;SDS011;66647;52.124;5.416;2023-04-01T17:43:35;2.50;;;0.82;;
76865;SDS011;66647;52.124;5.416;2023-04-01T17:46:13;2.78;;;0.88;;
76865;SDS011;66647;52.124;5.416;2023-04-01T17:49:01;2.67;;;0.40;;
76865;SDS011;66647;52.124;5.416;2023-04-01T17:54:52;6.78;;;0.65;;
76865;SDS011;66647;52.124;5.416;2023-04-01T18:00:23;3.33;;;0.98;;
76865;SDS011;66647;52.124;5.416;2023-04-01T18:14:03;2.67;;;0.75;;
76865;SDS011;66647;52.124;5.416;2023-04-01T18:25:15;3.97;;;0.90;;
76865;SDS011;66647;52.124;5.416;2023-04-01T18:27:49;3.50;;;0.98;;
76865;SDS011;66647;52.124;5.416;2023-04-01T18:32:57;4.30;;;1.20;;
76865;SDS011;66647;52.124;5.416;2023-04-01T18:38:27;4.60;;;1.67;;
76865;SDS011;66647;52.124;5.416;2023-04-01T18:46:25;3.22;;;1.30;;
76865;SDS011;66647;52.124;5.416;2023-04-01T18:49:14;4.43;;;1.15;;
76865;SDS011;66647;52.124;5.416;2023-04-01T18:57:12;3.20;;;0.90;;
76865;SDS011;66647;52.124;5.416;2023-04-01T18:59:47;3.97;;;0.85;;
76865;SDS011;66647;52.124;5.416;2023-04-01T19:02:31;5.80;;;1.23;;
76865;SDS011;66647;52.124;5.416;2023-04-01T19:05:14;2.83;;;0.73;;
76865;SDS011;66647;52.124;5.416;2023-04-01T19:07:47;2.88;;;0.80;;
76865;SDS011;66647;52.124;5.416;2023-04-01T19:21:32;3.50;;;1.08;;
76865;SDS011;66647;52.124;5.416;2023-04-01T19:26:40;3.40;;;0.90;;
76865;SDS011;66647;52.124;5.416;2023-04-01T19:29:18;3.80;;;1.30;;
76865;SDS011;66647;52.124;5.416;2023-04-01T19:37:20;3.17;;;1.05;;
76865;SDS011;66647;52.124;5.416;2023-04-01T19:46:10;3.10;;;0.90;;
76865;SDS011;66647;52.124;5.416;2023-04-01T19:48:50;3.75;;;1.23;;
76865;SDS011;66647;52.124;5.416;2023-04-01T19:51:25;3.88;;;1.60;;
76865;SDS011;66647;52.124;5.416;2023-04-01T19:54:10;3.22;;;0.90;;
76865;SDS011;66647;52.124;5.416;2023-04-01T19:56:43;5.68;;;1.38;;
76865;SDS011;66647;52.124;5.416;2023-04-01T20:04:40;4.75;;;1.77;;
76865;SDS011;66647;52.124;5.416;2023-04-01T20:07:12;3.65;;;1.45;;
76865;SDS011;66647;52.124;5.416;2023-04-01T20:16:13;5.30;;;2.53;;
76865;SDS011;66647;52.124;5.416;2023-04-01T20:18:49;5.95;;;2.15;;
76865;SDS011;66647;52.124;5.416;2023-04-01T20:26:40;5.60;;;2.58;;
76865;SDS011;66647;52.124;5.416;2023-04-01T20:29:34;6.22;;;2.80;;
76865;SDS011;66647;52.124;5.416;2023-04-01T20:40:37;7.32;;;2.58;;
76865;SDS011;66647;52.124;5.416;2023-04-01T20:46:20;6.85;;;2.47;;
76865;SDS011;66647;52.124;5.416;2023-04-01T20:48:57;5.80;;;3.03;;
76865;SDS011;66647;52.124;5.416;2023-04-01T20:51:47;6.07;;;1.95;;
76865;SDS011;66647;52.124;5.416;2023-04-01T21:03:14;5.00;;;2.05;;
76865;SDS011;66647;52.124;5.416;2023-04-01T21:08:39;6.25;;;1.85;;
76865;SDS011;66647;52.124;5.416;2023-04-01T21:11:24;5.65;;;2.00;;
76865;SDS011;66647;52.124;5.416;2023-04-01T21:17:08;5.53;;;2.00;;
76865;SDS011;66647;52.124;5.416;2023-04-01T21:44:50;5.95;;;2.08;;
76865;SDS011;66647;52.124;5.416;2023-04-01T22:01:26;4.88;;;2.28;;
76865;SDS011;66647;52.124;5.416;2023-04-01T22:06:46;7.07;;;1.88;;
76865;SDS011;66647;52.124;5.416;2023-04-01T22:09:30;5.15;;;2.38;;
76865;SDS011;66647;52.124;5.416;2023-04-01T22:12:05;6.63;;;2.33;;
76865;SDS011;66647;52.124;5.416;2023-04-01T22:15:28;4.90;;;2.00;;
76865;SDS011;66647;52.124;5.416;2023-04-01T22:17:31;5.63;;;2.13;;
76865;SDS011;66647;52.124;5.416;2023-04-01T22:20:23;4.75;;;2.42;;
76865;SDS011;66647;52.124;5.416;2023-04-01T22:28:24;6.20;;;2.28;;
76865;SDS011;66647;52.124;5.416;2023-04-01T22:31:03;5.72;;;1.95;;
76865;SDS011;66647;52.124;5.416;2023-04-01T22:36:30;5.88;;;2.53;;
76865;SDS011;66647;52.124;5.416;2023-04-01T22:42:17;7.57;;;3.15;;
76865;SDS011;66647;52.124;5.416;2023-04-01T22:45:10;5.45;;;2.58;;
76865;SDS011;66647;52.124;5.416;2023-04-01T22:48:44;6.15;;;3.45;;
76865;SDS011;66647;52.124;5.416;2023-04-01T22:50:54;9.05;;;3.50;;
76865;SDS011;66647;52.124;5.416;2023-04-01T22:56:37;7.15;;;2.90;;
76865;SDS011;66647;52.124;5.416;2023-04-01T22:59:15;7.78;;;2.67;;
76865;SDS011;66647;52.124;5.416;2023-04-01T23:01:52;10.00;;;4.03;;
76865;SDS011;66647;52.124;5.416;2023-04-01T23:04:31;7.22;;;2.90;;
76865;SDS011;66647;52.124;5.416;2023-04-01T23:07:02;6.18;;;2.30;;
76865;SDS011;66647;52.124;5.416;2023-04-01T23:09:35;9.30;;;3.22;;
76865;SDS011;66647;52.124;5.416;2023-04-01T23:12:04;8.82;;;3.15;;
76865;SDS011;66647;52.124;5.416;2023-04-01T23:14:35;10.25;;;3.50;;
76865;SDS011;66647;52.124;5.416;2023-04-01T23:17:28;7.72;;;3.28;;
76865;SDS011;66647;52.124;5.416;2023-04-01T23:20:02;8.90;;;3.65;;
76865;SDS011;66647;52.124;5.416;2023-04-01T23:23:03;7.53;;;2.75;;
76865;SDS011;66647;52.124;5.416;2023-04-01T23:26:04;6.70;;;2.90;;
76865;SDS011;66647;52.124;5.416;2023-04-01T23:28:49;6.90;;;3.53;;
76865;SDS011;66647;52.124;5.416;2023-04-01T23:31:27;6.45;;;2.40;;
76865;SDS011;66647;52.124;5.416;2023-04-01T23:34:01;7.47;;;3.17;;
76865;SDS011;66647;52.124;5.416;2023-04-01T23:36:30;7.22;;;2.85;;
76865;SDS011;66647;52.124;5.416;2023-04-01T23:39:05;9.07;;;3.35;;
76865;SDS011;66647;52.124;5.416;2023-04-01T23:41:39;9.18;;;3.20;;
76865;SDS011;66647;52.124;5.416;2023-04-01T23:44:11;8.75;;;3.55;;
76865;SDS011;66647;52.124;5.416;2023-04-01T23:46:39;10.52;;;3.80;;
76865;SDS011;66647;52.124;5.416;2023-04-01T23:49:11;9.15;;;3.40;;
76865;SDS011;66647;52.124;5.416;2023-04-01T23:51:50;9.63;;;3.63;;
76865;SDS011;66647;52.124;5.416;2023-04-01T23:54:25;11.15;;;3.17;;
76865;SDS011;66647;52.124;5.416;2023-04-01T23:57:10;10.65;;;3.58;;
76865;SDS011;66647;52.124;5.416;2023-04-01T23:59:39;7.93;;;3.40;;
